sensor_id;sensor_type;location;lat;lon;timestamp;pressure;altitude;pressure_sealevel;temperature;humidity
73558;BME280;61829;53.286;10.434;2023-06-14T00:01:00;101579.53;;;14.67;68.57
73558;BME280;61829;53.286;10.434;2023-06-14T00:03:42;101573.84;;;14.62;69.19
73558;BME280;61829;53.286;10.434;2023-06-14T00:06:09;101586.59;;;14.62;69.01
73558;BME280;61829;53.286;10.434;2023-06-14T00:08:34;101575.06;;;14.59;69.55
73558;BME280;61829;53.286;10.434;2023-06-14T00:11:00;101587.16;;;14.57;69.07
73558;BME280;61829;53.286;10.434;2023-06-14T00:13:26;101587.97;;;14.57;70.00
73558;BME280;61829;53.286;10.434;2023-06-14T00:15:52;101591.91;;;14.55;69.71
73558;BME280;61829;53.286;10.434;2023-06-14T00:18:21;101589.19;;;14.55;70.04
73558;BME280;61829;53.286;10.434;2023-06-14T00:20:50;101592.66;;;14.49;70.31
73558;BME280;61829;53.286;10.434;2023-06-14T00:23:18;101584.28;;;14.44;70.92
73558;BME280;61829;53.286;10.434;2023-06-14T00:25:44;101592.41;;;14.44;70.64
73558;BME280;61829;53.286;10.434;2023-06-14T00:28:10;101598.41;;;14.39;70.96
73558;BME280;61829;53.286;10.434;2023-06-14T00:30:36;101596.91;;;14.36;71.07
73558;BME280;61829;53.286;10.434;2023-06-14T00:33:02;101606.09;;;14.35;71.27
73558;BME280;61829;53.286;10.434;2023-06-14T00:35:28;101600.84;;;14.34;70.81
73558;BME280;61829;53.286;10.434;2023-06-14T00:37:54;101597.09;;;14.35;71.35
73558;BME280;61829;53.286;10.434;2023-06-14T00:40:21;101598.34;;;14.32;71.53
73558;BME280;61829;53.286;10.434;2023-06-14T00:42:47;101602.81;;;14.25;72.01
73558;BME280;61829;53.286;10.434;2023-06-14T00:45:13;101599.66;;;14.22;72.26
73558;BME280;61829;53.286;10.434;2023-06-14T00:47:41;101602.09;;;14.17;72.79
73558;BME280;61829;53.286;10.434;2023-06-14T00:50:09;101604.16;;;14.14;72.75
73558;BME280;61829;53.286;10.434;2023-06-14T00:52:35;101610.78;;;14.12;73.04
73558;BME280;61829;53.286;10.434;2023-06-14T00:55:02;101606.19;;;14.12;72.89
73558;BME280;61829;53.286;10.434;2023-06-14T00:57:28;101617.03;;;14.12;72.83
73558;BME280;61829;53.286;10.434;2023-06-14T00:59:55;101611.44;;;14.14;72.80
73558;BME280;61829;53.286;10.434;2023-06-14T01:02:21;101610.78;;;14.12;72.02
73558;BME280;61829;53.286;10.434;2023-06-14T01:04:48;101608.91;;;14.12;72.26
73558;BME280;61829;53.286;10.434;2023-06-14T01:15:43;101613.59;;;14.04;74.16
73558;BME280;61829;53.286;10.434;2023-06-14T01:18:09;101619.41;;;14.01;73.88
73558;BME280;61829;53.286;10.434;2023-06-14T01:20:44;101610.16;;;13.95;74.44
73558;BME280;61829;53.286;10.434;2023-06-14T01:23:16;101619.69;;;13.91;74.04
73558;BME280;61829;53.286;10.434;2023-06-14T01:25:42;101610.72;;;13.90;74.68
73558;BME280;61829;53.286;10.434;2023-06-14T01:31:38;101613.31;;;13.84;74.97
73558;BME280;61829;53.286;10.434;2023-06-14T01:34:07;101617.06;;;13.83;75.04
73558;BME280;61829;53.286;10.434;2023-06-14T01:36:36;101612.50;;;13.83;74.94
73558;BME280;61829;53.286;10.434;2023-06-14T01:39:04;101616.25;;;13.82;75.47
73558;BME280;61829;53.286;10.434;2023-06-14T01:41:33;101618.00;;;13.75;75.99
73558;BME280;61829;53.286;10.434;2023-06-14T01:44:01;101627.81;;;13.76;75.69
73558;BME280;61829;53.286;10.434;2023-06-14T01:46:27;101624.91;;;13.78;75.64
73558;BME280;61829;53.286;10.434;2023-06-14T01:48:53;101613.25;;;13.77;75.96
73558;BME280;61829;53.286;10.434;2023-06-14T01:51:19;101623.63;;;13.74;76.16
73558;BME280;61829;53.286;10.434;2023-06-14T01:53:44;101618.94;;;13.67;76.56
73558;BME280;61829;53.286;10.434;2023-06-14T01:56:10;101618.47;;;13.64;76.94
73558;BME280;61829;53.286;10.434;2023-06-14T01:58:37;101620.91;;;13.59;77.32
73558;BME280;61829;53.286;10.434;2023-06-14T02:01:03;101614.53;;;13.52;77.24
73558;BME280;61829;53.286;10.434;2023-06-14T02:03:29;101618.09;;;13.52;77.11
73558;BME280;61829;53.286;10.434;2023-06-14T02:05:55;101621.00;;;13.51;77.78
73558;BME280;61829;53.286;10.434;2023-06-14T02:08:21;101610.31;;;13.49;78.21
73558;BME280;61829;53.286;10.434;2023-06-14T02:10:48;101618.53;;;13.41;78.40
73558;BME280;61829;53.286;10.434;2023-06-14T02:13:14;101621.81;;;13.36;78.84
73558;BME280;61829;53.286;10.434;2023-06-14T02:15:40;101620.69;;;13.31;79.34
73558;BME280;61829;53.286;10.434;2023-06-14T02:18:09;101616.81;;;13.25;79.49
73558;BME280;61829;53.286;10.434;2023-06-14T02:20:35;101626.50;;;13.19;80.19
73558;BME280;61829;53.286;10.434;2023-06-14T02:23:01;101625.00;;;13.17;80.05
73558;BME280;61829;53.286;10.434;2023-06-14T02:25:27;101630.78;;;13.14;80.33
73558;BME280;61829;53.286;10.434;2023-06-14T02:27:54;101621.69;;;13.07;80.73
73558;BME280;61829;53.286;10.434;2023-06-14T02:30:20;101625.78;;;13.02;81.52
73558;BME280;61829;53.286;10.434;2023-06-14T02:32:46;101624.66;;;12.97;81.41
73558;BME280;61829;53.286;10.434;2023-06-14T02:35:14;101626.84;;;12.93;82.02
73558;BME280;61829;53.286;10.434;2023-06-14T02:37:40;101623.50;;;12.91;81.60
73558;BME280;61829;53.286;10.434;2023-06-14T02:40:06;101630.59;;;12.92;81.43
73558;BME280;61829;53.286;10.434;2023-06-14T02:42:32;101630.59;;;12.92;81.75
73558;BME280;61829;53.286;10.434;2023-06-14T02:44:58;101635.34;;;12.90;81.58
73558;BME280;61829;53.286;10.434;2023-06-14T02:47:24;101637.88;;;12.92;81.49
73558;BME280;61829;53.286;10.434;2023-06-14T02:49:50;101636.00;;;12.92;81.84
73558;BME280;61829;53.286;10.434;2023-06-14T02:52:16;101637.50;;;12.95;81.28
73558;BME280;61829;53.286;10.434;2023-06-14T02:54:42;101635.84;;;12.94;81.67
73558;BME280;61829;53.286;10.434;2023-06-14T02:57:07;101640.22;;;12.95;81.67
73558;BME280;61829;53.286;10.434;2023-06-14T02:59:34;101646.66;;;12.94;82.28
73558;BME280;61829;53.286;10.434;2023-06-14T03:02:00;101647.53;;;12.86;83.08
73558;BME280;61829;53.286;10.434;2023-06-14T03:04:27;101643.69;;;12.80;83.02
73558;BME280;61829;53.286;10.434;2023-06-14T03:06:54;101647.25;;;12.81;83.10
73558;BME280;61829;53.286;10.434;2023-06-14T03:09:20;101648.91;;;12.82;83.55
73558;BME280;61829;53.286;10.434;2023-06-14T03:11:46;101659.94;;;12.80;84.02
73558;BME280;61829;53.286;10.434;2023-06-14T03:14:12;101658.09;;;12.73;84.20
73558;BME280;61829;53.286;10.434;2023-06-14T03:16:39;101663.88;;;12.70;84.99
73558;BME280;61829;53.286;10.434;2023-06-14T03:19:06;101664.53;;;12.72;84.63
73558;BME280;61829;53.286;10.434;2023-06-14T03:21:32;101662.50;;;12.74;84.68
73558;BME280;61829;53.286;10.434;2023-06-14T03:24:00;101667.72;;;12.75;84.45
73558;BME280;61829;53.286;10.434;2023-06-14T03:26:26;101672.78;;;12.78;84.79
73558;BME280;61829;53.286;10.434;2023-06-14T03:28:52;101667.38;;;12.78;84.67
73558;BME280;61829;53.286;10.434;2023-06-14T03:31:17;101670.44;;;12.75;85.32
73558;BME280;61829;53.286;10.434;2023-06-14T03:33:44;101669.75;;;12.73;85.28
73558;BME280;61829;53.286;10.434;2023-06-14T03:36:10;101679.59;;;12.74;85.06
73558;BME280;61829;53.286;10.434;2023-06-14T03:38:36;101677.72;;;12.75;84.67
73558;BME280;61829;53.286;10.434;2023-06-14T03:41:02;101680.41;;;12.75;85.23
73558;BME280;61829;53.286;10.434;2023-06-14T03:43:28;101689.84;;;12.79;85.91
73558;BME280;61829;53.286;10.434;2023-06-14T03:45:55;101695.75;;;12.83;85.04
73558;BME280;61829;53.286;10.434;2023-06-14T03:48:21;101685.41;;;12.86;85.30
73558;BME280;61829;53.286;10.434;2023-06-14T03:50:47;101691.78;;;12.93;85.45
73558;BME280;61829;53.286;10.434;2023-06-14T03:53:13;101703.91;;;13.06;84.70
73558;BME280;61829;53.286;10.434;2023-06-14T03:55:38;101706.34;;;13.15;85.11
73558;BME280;61829;53.286;10.434;2023-06-14T03:58:05;101698.16;;;13.23;84.77
73558;BME280;61829;53.286;10.434;2023-06-14T04:00:31;101700.47;;;13.35;83.72
73558;BME280;61829;53.286;10.434;2023-06-14T04:02:57;101700.53;;;13.50;83.01
73558;BME280;61829;53.286;10.434;2023-06-14T04:05:24;101698.34;;;13.68;82.59
73558;BME280;61829;53.286;10.434;2023-06-14T04:07:52;101697.97;;;13.86;81.61
73558;BME280;61829;53.286;10.434;2023-06-14T04:10:22;101701.94;;;14.13;80.10
73558;BME280;61829;53.286;10.434;2023-06-14T04:12:48;101709.59;;;14.39;78.88
73558;BME280;61829;53.286;10.434;2023-06-14T04:15:14;101709.09;;;14.65;77.72
73558;BME280;61829;53.286;10.434;2023-06-14T04:17:40;101705.66;;;14.93;76.64
73558;BME280;61829;53.286;10.434;2023-06-14T04:20:06;101712.81;;;15.15;75.06
73558;BME280;61829;53.286;10.434;2023-06-14T04:22:35;101721.59;;;15.39;74.54
73558;BME280;61829;53.286;10.434;2023-06-14T04:25:02;101713.88;;;15.64;73.26
73558;BME280;61829;53.286;10.434;2023-06-14T04:27:28;101721.28;;;15.77;72.45
73558;BME280;61829;53.286;10.434;2023-06-14T04:29:59;101724.63;;;16.00;72.05
73558;BME280;61829;53.286;10.434;2023-06-14T04:32:28;101725.53;;;16.49;69.81
73558;BME280;61829;53.286;10.434;2023-06-14T04:34:59;101721.09;;;16.82;68.26
73558;BME280;61829;53.286;10.434;2023-06-14T04:37:27;101726.81;;;17.08;67.44
73558;BME280;61829;53.286;10.434;2023-06-14T04:39:55;101716.38;;;17.38;66.28
73558;BME280;61829;53.286;10.434;2023-06-14T04:42:22;101719.75;;;17.33;65.78
73558;BME280;61829;53.286;10.434;2023-06-14T04:44:51;101726.88;;;17.67;64.71
73558;BME280;61829;53.286;10.434;2023-06-14T04:47:20;101721.66;;;17.79;64.11
73558;BME280;61829;53.286;10.434;2023-06-14T04:49:46;101728.78;;;18.07;63.14
73558;BME280;61829;53.286;10.434;2023-06-14T04:52:12;101727.00;;;18.39;62.04
73558;BME280;61829;53.286;10.434;2023-06-14T04:54:39;101727.13;;;18.64;60.56
73558;BME280;61829;53.286;10.434;2023-06-14T04:57:09;101727.28;;;18.82;59.64
73558;BME280;61829;53.286;10.434;2023-06-14T04:59:40;101718.25;;;18.82;59.53
73558;BME280;61829;53.286;10.434;2023-06-14T05:02:06;101730.50;;;19.11;59.18
73558;BME280;61829;53.286;10.434;2023-06-14T05:04:32;101730.13;;;19.33;57.85
73558;BME280;61829;53.286;10.434;2023-06-14T05:06:58;101731.81;;;19.59;56.88
73558;BME280;61829;53.286;10.434;2023-06-14T05:09:25;101729.94;;;19.59;57.53
73558;BME280;61829;53.286;10.434;2023-06-14T05:11:51;101738.75;;;19.61;56.39
73558;BME280;61829;53.286;10.434;2023-06-14T05:14:17;101738.28;;;19.64;56.44
73558;BME280;61829;53.286;10.434;2023-06-14T05:16:44;101742.69;;;19.97;55.33
73558;BME280;61829;53.286;10.434;2023-06-14T05:19:10;101745.38;;;20.40;54.28
73558;BME280;61829;53.286;10.434;2023-06-14T05:21:36;101744.28;;;20.97;52.60
73558;BME280;61829;53.286;10.434;2023-06-14T05:24:02;101736.34;;;21.07;51.30
73558;BME280;61829;53.286;10.434;2023-06-14T05:26:29;101731.78;;;21.31;51.10
73558;BME280;61829;53.286;10.434;2023-06-14T05:28:56;101728.28;;;21.54;50.92
73558;BME280;61829;53.286;10.434;2023-06-14T05:31:26;101726.53;;;21.71;50.51
73558;BME280;61829;53.286;10.434;2023-06-14T05:33:54;101730.59;;;21.69;50.58
73558;BME280;61829;53.286;10.434;2023-06-14T05:36:21;101738.94;;;21.74;49.66
73558;BME280;61829;53.286;10.434;2023-06-14T05:38:48;101737.09;;;21.56;49.58
73558;BME280;61829;53.286;10.434;2023-06-14T05:41:14;101739.28;;;21.66;50.23
73558;BME280;61829;53.286;10.434;2023-06-14T05:43:40;101748.56;;;21.65;49.59
73558;BME280;61829;53.286;10.434;2023-06-14T05:46:06;101738.47;;;21.77;50.02
73558;BME280;61829;53.286;10.434;2023-06-14T05:48:31;101749.78;;;22.04;49.10
73558;BME280;61829;53.286;10.434;2023-06-14T05:50:58;101747.16;;;22.45;47.66
73558;BME280;61829;53.286;10.434;2023-06-14T05:53:24;101759.16;;;22.67;48.03
73558;BME280;61829;53.286;10.434;2023-06-14T05:55:50;101756.34;;;22.62;47.41
73558;BME280;61829;53.286;10.434;2023-06-14T05:58:19;101751.78;;;22.56;47.57
73558;BME280;61829;53.286;10.434;2023-06-14T06:00:45;101754.25;;;22.69;47.18
73558;BME280;61829;53.286;10.434;2023-06-14T06:03:11;101758.75;;;22.99;45.78
73558;BME280;61829;53.286;10.434;2023-06-14T06:05:39;101754.41;;;23.03;44.27
73558;BME280;61829;53.286;10.434;2023-06-14T06:08:05;101764.94;;;23.06;45.29
73558;BME280;61829;53.286;10.434;2023-06-14T06:10:31;101758.44;;;23.12;45.86
73558;BME280;61829;53.286;10.434;2023-06-14T06:12:57;101750.72;;;23.26;45.65
73558;BME280;61829;53.286;10.434;2023-06-14T06:15:23;101755.66;;;23.58;44.23
73558;BME280;61829;53.286;10.434;2023-06-14T06:17:49;101761.19;;;23.12;44.77
73558;BME280;61829;53.286;10.434;2023-06-14T06:20:15;101757.06;;;22.98;45.35
73558;BME280;61829;53.286;10.434;2023-06-14T06:22:41;101755.56;;;23.19;45.15
73558;BME280;61829;53.286;10.434;2023-06-14T06:25:07;101762.75;;;23.37;45.52
73558;BME280;61829;53.286;10.434;2023-06-14T06:27:34;101765.03;;;23.11;45.11
73558;BME280;61829;53.286;10.434;2023-06-14T06:30:01;101764.81;;;23.29;44.80
73558;BME280;61829;53.286;10.434;2023-06-14T06:32:27;101767.84;;;22.88;45.59
73558;BME280;61829;53.286;10.434;2023-06-14T06:34:53;101771.75;;;22.51;46.18
73558;BME280;61829;53.286;10.434;2023-06-14T06:37:19;101772.34;;;22.53;46.62
73558;BME280;61829;53.286;10.434;2023-06-14T06:39:45;101773.75;;;22.68;46.46
73558;BME280;61829;53.286;10.434;2023-06-14T06:42:12;101778.00;;;22.99;45.73
73558;BME280;61829;53.286;10.434;2023-06-14T06:44:38;101765.50;;;23.37;45.14
73558;BME280;61829;53.286;10.434;2023-06-14T06:47:04;101772.53;;;23.61;43.68
73558;BME280;61829;53.286;10.434;2023-06-14T06:49:30;101773.84;;;23.42;43.92
73558;BME280;61829;53.286;10.434;2023-06-14T06:52:00;101786.50;;;23.71;43.71
73558;BME280;61829;53.286;10.434;2023-06-14T06:54:28;101793.75;;;23.94;43.01
73558;BME280;61829;53.286;10.434;2023-06-14T06:56:54;101782.69;;;23.89;42.33
73558;BME280;61829;53.286;10.434;2023-06-14T06:59:20;101793.31;;;24.19;41.91
73558;BME280;61829;53.286;10.434;2023-06-14T07:01:46;101787.63;;;24.26;41.38
73558;BME280;61829;53.286;10.434;2023-06-14T07:04:13;101786.34;;;24.51;41.00
73558;BME280;61829;53.286;10.434;2023-06-14T07:06:38;101788.00;;;24.74;41.12
73558;BME280;61829;53.286;10.434;2023-06-14T07:09:05;101775.34;;;24.73;40.98
73558;BME280;61829;53.286;10.434;2023-06-14T07:11:34;101778.03;;;24.68;41.00
73558;BME280;61829;53.286;10.434;2023-06-14T07:14:00;101773.22;;;24.58;40.83
73558;BME280;61829;53.286;10.434;2023-06-14T07:16:26;101773.22;;;24.58;41.63
73558;BME280;61829;53.286;10.434;2023-06-14T07:18:52;101781.59;;;24.68;41.23
73558;BME280;61829;53.286;10.434;2023-06-14T07:21:17;101777.66;;;24.81;40.52
73558;BME280;61829;53.286;10.434;2023-06-14T07:23:43;101784.81;;;24.82;40.36
73558;BME280;61829;53.286;10.434;2023-06-14T07:26:09;101781.97;;;24.99;40.35
73558;BME280;61829;53.286;10.434;2023-06-14T07:28:35;101785.41;;;25.33;40.27
73558;BME280;61829;53.286;10.434;2023-06-14T07:31:01;101777.84;;;25.50;39.32
73558;BME280;61829;53.286;10.434;2023-06-14T07:33:28;101773.78;;;25.58;38.32
73558;BME280;61829;53.286;10.434;2023-06-14T07:35:54;101779.59;;;25.57;38.92
73558;BME280;61829;53.286;10.434;2023-06-14T07:38:20;101776.47;;;25.80;37.62
73558;BME280;61829;53.286;10.434;2023-06-14T07:40:47;101782.81;;;25.81;37.91
73558;BME280;61829;53.286;10.434;2023-06-14T07:43:13;101779.31;;;25.58;37.98
73558;BME280;61829;53.286;10.434;2023-06-14T07:45:40;101779.41;;;25.68;37.66
73558;BME280;61829;53.286;10.434;2023-06-14T07:48:06;101780.66;;;25.83;38.13
73558;BME280;61829;53.286;10.434;2023-06-14T07:50:34;101785.56;;;25.48;37.33
73558;BME280;61829;53.286;10.434;2023-06-14T07:53:02;101781.16;;;24.98;38.34
73558;BME280;61829;53.286;10.434;2023-06-14T07:55:28;101770.84;;;24.67;39.01
73558;BME280;61829;53.286;10.434;2023-06-14T07:57:57;101786.94;;;24.36;39.17
73558;BME280;61829;53.286;10.434;2023-06-14T08:00:22;101777.53;;;24.49;40.05
73558;BME280;61829;53.286;10.434;2023-06-14T08:02:48;101784.25;;;24.80;38.80
73558;BME280;61829;53.286;10.434;2023-06-14T08:05:14;101788.69;;;24.81;38.73
73558;BME280;61829;53.286;10.434;2023-06-14T08:07:40;101792.38;;;24.70;39.12
73558;BME280;61829;53.286;10.434;2023-06-14T08:10:06;101782.25;;;24.75;39.03
73558;BME280;61829;53.286;10.434;2023-06-14T08:12:33;101781.16;;;24.98;39.14
73558;BME280;61829;53.286;10.434;2023-06-14T08:15:00;101787.00;;;24.80;38.68
73558;BME280;61829;53.286;10.434;2023-06-14T08:17:26;101784.50;;;24.78;39.01
73558;BME280;61829;53.286;10.434;2023-06-14T08:19:52;101779.31;;;24.82;38.98
73558;BME280;61829;53.286;10.434;2023-06-14T08:22:20;101780.06;;;24.99;38.37
73558;BME280;61829;53.286;10.434;2023-06-14T08:24:47;101782.50;;;24.96;38.56
73558;BME280;61829;53.286;10.434;2023-06-14T08:27:13;101787.19;;;24.73;38.08
73558;BME280;61829;53.286;10.434;2023-06-14T08:29:39;101780.47;;;24.64;38.49
73558;BME280;61829;53.286;10.434;2023-06-14T08:32:06;101776.88;;;24.63;38.48
73558;BME280;61829;53.286;10.434;2023-06-14T08:34:32;101788.94;;;24.40;38.93
73558;BME280;61829;53.286;10.434;2023-06-14T08:36:59;101783.16;;;24.59;39.83
73558;BME280;61829;53.286;10.434;2023-06-14T08:39:25;101780.97;;;24.83;39.40
73558;BME280;61829;53.286;10.434;2023-06-14T08:41:52;101793.91;;;25.04;38.66
73558;BME280;61829;53.286;10.434;2023-06-14T08:44:18;101787.09;;;25.34;38.67
73558;BME280;61829;53.286;10.434;2023-06-14T08:46:45;101791.09;;;25.48;37.57
73558;BME280;61829;53.286;10.434;2023-06-14T08:49:12;101790.63;;;25.29;37.12
73558;BME280;61829;53.286;10.434;2023-06-14T08:51:38;101791.34;;;24.98;37.71
73558;BME280;61829;53.286;10.434;2023-06-14T08:54:06;101783.28;;;24.91;37.67
73558;BME280;61829;53.286;10.434;2023-06-14T08:56:32;101787.25;;;25.22;37.29
73558;BME280;61829;53.286;10.434;2023-06-14T08:58:59;101782.72;;;25.38;37.04
73558;BME280;61829;53.286;10.434;2023-06-14T09:01:33;101791.34;;;25.47;37.12
73558;BME280;61829;53.286;10.434;2023-06-14T09:04:00;101783.81;;;25.69;36.51
73558;BME280;61829;53.286;10.434;2023-06-14T09:06:26;101784.88;;;25.95;35.90
73558;BME280;61829;53.286;10.434;2023-06-14T09:08:54;101783.78;;;26.34;35.92
73558;BME280;61829;53.286;10.434;2023-06-14T09:11:22;101790.34;;;26.23;34.72
73558;BME280;61829;53.286;10.434;2023-06-14T09:13:49;101793.50;;;26.04;35.69
73558;BME280;61829;53.286;10.434;2023-06-14T09:16:16;101798.97;;;25.67;35.02
73558;BME280;61829;53.286;10.434;2023-06-14T09:18:46;101801.84;;;25.50;34.93
73558;BME280;61829;53.286;10.434;2023-06-14T09:21:16;101782.53;;;25.50;34.93
73558;BME280;61829;53.286;10.434;2023-06-14T09:23:46;101770.81;;;25.65;34.77
73558;BME280;61829;53.286;10.434;2023-06-14T09:26:18;101790.41;;;25.63;35.19
73558;BME280;61829;53.286;10.434;2023-06-14T09:28:49;101767.44;;;25.58;34.57
73558;BME280;61829;53.286;10.434;2023-06-14T09:31:17;101771.94;;;25.69;35.54
73558;BME280;61829;53.286;10.434;2023-06-14T09:33:47;101774.94;;;25.94;35.21
73558;BME280;61829;53.286;10.434;2023-06-14T09:36:21;101760.63;;;26.03;35.90
73558;BME280;61829;53.286;10.434;2023-06-14T09:43:59;101767.78;;;26.46;32.31
73558;BME280;61829;53.286;10.434;2023-06-14T09:46:29;101768.03;;;26.39;34.56
73558;BME280;61829;53.286;10.434;2023-06-14T09:49:00;101766.38;;;26.43;33.89
73558;BME280;61829;53.286;10.434;2023-06-14T09:51:27;101786.69;;;26.59;33.26
73558;BME280;61829;53.286;10.434;2023-06-14T09:53:55;101778.41;;;26.59;32.34
73558;BME280;61829;53.286;10.434;2023-06-14T09:56:44;101763.50;;;26.71;31.63
73558;BME280;61829;53.286;10.434;2023-06-14T09:59:10;101777.31;;;26.65;32.38
73558;BME280;61829;53.286;10.434;2023-06-14T10:01:43;101765.97;;;26.62;33.15
73558;BME280;61829;53.286;10.434;2023-06-14T10:04:09;101767.69;;;26.73;33.73
73558;BME280;61829;53.286;10.434;2023-06-14T10:06:37;101761.63;;;26.92;32.75
73558;BME280;61829;53.286;10.434;2023-06-14T10:09:04;101758.91;;;27.02;31.89
73558;BME280;61829;53.286;10.434;2023-06-14T10:11:34;101753.72;;;27.26;32.84
73558;BME280;61829;53.286;10.434;2023-06-14T10:14:01;101749.63;;;27.49;31.83
73558;BME280;61829;53.286;10.434;2023-06-14T10:19:25;101755.97;;;27.39;31.21
73558;BME280;61829;53.286;10.434;2023-06-14T10:22:07;101752.09;;;27.35;30.75
73558;BME280;61829;53.286;10.434;2023-06-14T10:24:40;101749.03;;;27.26;32.04
73558;BME280;61829;53.286;10.434;2023-06-14T10:27:07;101744.06;;;27.23;32.32
73558;BME280;61829;53.286;10.434;2023-06-14T10:32:24;101745.97;;;27.28;30.43
73558;BME280;61829;53.286;10.434;2023-06-14T10:34:58;101746.25;;;27.37;30.49
73558;BME280;61829;53.286;10.434;2023-06-14T10:37:24;101748.50;;;27.55;30.51
73558;BME280;61829;53.286;10.434;2023-06-14T10:39:50;101736.56;;;27.24;32.17
73558;BME280;61829;53.286;10.434;2023-06-14T10:42:17;101728.53;;;27.27;32.25
73558;BME280;61829;53.286;10.434;2023-06-14T10:44:49;101737.41;;;27.45;30.95
73558;BME280;61829;53.286;10.434;2023-06-14T10:50:07;101740.28;;;26.72;31.20
73558;BME280;61829;53.286;10.434;2023-06-14T10:52:38;101738.91;;;26.64;31.32
73558;BME280;61829;53.286;10.434;2023-06-14T10:57:35;101720.16;;;26.92;30.86
73558;BME280;61829;53.286;10.434;2023-06-14T11:00:03;101723.16;;;26.80;32.18
73558;BME280;61829;53.286;10.434;2023-06-14T11:05:27;101724.44;;;26.52;32.13
73558;BME280;61829;53.286;10.434;2023-06-14T11:11:00;101720.47;;;26.32;31.90
73558;BME280;61829;53.286;10.434;2023-06-14T11:13:28;101723.06;;;26.02;31.56
73558;BME280;61829;53.286;10.434;2023-06-14T11:15:54;101710.44;;;26.21;32.27
73558;BME280;61829;53.286;10.434;2023-06-14T11:18:24;101706.59;;;26.22;31.28
73558;BME280;61829;53.286;10.434;2023-06-14T11:20:53;101710.50;;;26.31;32.21
73558;BME280;61829;53.286;10.434;2023-06-14T11:23:19;101712.91;;;26.65;31.96
73558;BME280;61829;53.286;10.434;2023-06-14T11:25:51;101716.09;;;26.47;31.07
73558;BME280;61829;53.286;10.434;2023-06-14T11:28:17;101710.41;;;26.11;31.89
73558;BME280;61829;53.286;10.434;2023-06-14T11:30:45;101711.53;;;25.77;31.67
73558;BME280;61829;53.286;10.434;2023-06-14T11:33:17;101718.28;;;25.54;32.26
73558;BME280;61829;53.286;10.434;2023-06-14T11:35:44;101703.06;;;25.52;33.10
73558;BME280;61829;53.286;10.434;2023-06-14T11:38:11;101693.88;;;25.79;32.94
73558;BME280;61829;53.286;10.434;2023-06-14T11:40:38;101697.09;;;26.03;32.21
73558;BME280;61829;53.286;10.434;2023-06-14T11:43:04;101690.56;;;26.19;31.29
73558;BME280;61829;53.286;10.434;2023-06-14T11:45:33;101701.91;;;26.23;31.08
73558;BME280;61829;53.286;10.434;2023-06-14T11:47:59;101694.88;;;26.00;31.69
73558;BME280;61829;53.286;10.434;2023-06-14T11:50:26;101689.00;;;25.86;31.80
73558;BME280;61829;53.286;10.434;2023-06-14T11:52:56;101694.03;;;25.94;31.89
73558;BME280;61829;53.286;10.434;2023-06-14T11:55:36;101698.03;;;25.81;31.85
73558;BME280;61829;53.286;10.434;2023-06-14T11:58:02;101691.13;;;25.41;32.37
73558;BME280;61829;53.286;10.434;2023-06-14T12:00:29;101686.41;;;25.37;32.32
73558;BME280;61829;53.286;10.434;2023-06-14T12:02:56;101689.63;;;25.61;31.64
73558;BME280;61829;53.286;10.434;2023-06-14T12:05:23;101678.38;;;25.72;33.05
73558;BME280;61829;53.286;10.434;2023-06-14T12:07:49;101668.94;;;26.06;32.21
73558;BME280;61829;53.286;10.434;2023-06-14T12:10:16;101665.56;;;26.51;31.64
73558;BME280;61829;53.286;10.434;2023-06-14T12:12:42;101664.22;;;26.69;30.93
73558;BME280;61829;53.286;10.434;2023-06-14T12:15:09;101653.41;;;26.57;30.56
73558;BME280;61829;53.286;10.434;2023-06-14T12:17:37;101662.84;;;26.67;30.40
73558;BME280;61829;53.286;10.434;2023-06-14T12:20:09;101662.03;;;26.76;29.14
73558;BME280;61829;53.286;10.434;2023-06-14T12:22:37;101664.28;;;26.84;30.38
73558;BME280;61829;53.286;10.434;2023-06-14T12:25:04;101663.41;;;26.74;29.31
73558;BME280;61829;53.286;10.434;2023-06-14T12:27:30;101666.69;;;26.60;29.50
73558;BME280;61829;53.286;10.434;2023-06-14T12:30:03;101663.69;;;26.67;29.43
73558;BME280;61829;53.286;10.434;2023-06-14T12:32:30;101667.31;;;26.83;29.42
73558;BME280;61829;53.286;10.434;2023-06-14T12:34:56;101671.97;;;26.67;28.77
73558;BME280;61829;53.286;10.434;2023-06-14T12:37:22;101660.91;;;26.72;29.02
73558;BME280;61829;53.286;10.434;2023-06-14T12:39:48;101657.06;;;26.88;28.68
73558;BME280;61829;53.286;10.434;2023-06-14T12:42:16;101648.78;;;27.14;28.49
73558;BME280;61829;53.286;10.434;2023-06-14T12:44:42;101662.13;;;27.33;27.25
73558;BME280;61829;53.286;10.434;2023-06-14T12:47:08;101654.94;;;27.16;27.58
73558;BME280;61829;53.286;10.434;2023-06-14T12:49:34;101650.22;;;27.22;28.16
73558;BME280;61829;53.286;10.434;2023-06-14T12:52:00;101651.84;;;27.53;28.19
73558;BME280;61829;53.286;10.434;2023-06-14T12:54:25;101662.66;;;27.40;27.77
73558;BME280;61829;53.286;10.434;2023-06-14T12:56:52;101667.06;;;27.00;27.29
73558;BME280;61829;53.286;10.434;2023-06-14T12:59:20;101654.81;;;26.60;28.03
73558;BME280;61829;53.286;10.434;2023-06-14T13:01:46;101659.72;;;26.48;28.47
73558;BME280;61829;53.286;10.434;2023-06-14T13:04:16;101648.72;;;26.53;27.73
73558;BME280;61829;53.286;10.434;2023-06-14T13:06:44;101640.97;;;26.55;28.07
73558;BME280;61829;53.286;10.434;2023-06-14T13:09:10;101650.41;;;26.64;28.73
73558;BME280;61829;53.286;10.434;2023-06-14T13:11:36;101646.78;;;26.63;28.56
73558;BME280;61829;53.286;10.434;2023-06-14T13:14:03;101639.88;;;26.66;27.84